sensor_id;sensor_type;location;lat;lon;timestamp;pressure;altitude;pressure_sealevel;temperature;humidity
6218;BME280;3142;48.206;11.550;2024-02-21T00:02:18;96751.94;;;7.27;62.25
6218;BME280;3142;48.206;11.550;2024-02-21T00:04:44;96743.97;;;7.29;62.49
6218;BME280;3142;48.206;11.550;2024-02-21T00:07:11;96746.84;;;7.26;62.73
6218;BME280;3142;48.206;11.550;2024-02-21T00:09:39;96739.88;;;7.26;62.65
6218;BME280;3142;48.206;11.550;2024-02-21T00:12:06;96740.56;;;7.28;62.71
6218;BME280;3142;48.206;11.550;2024-02-21T00:14:33;96732.75;;;7.28;62.35
6218;BME280;3142;48.206;11.550;2024-02-21T00:16:59;96732.38;;;7.23;62.05
6218;BME280;3142;48.206;11.550;2024-02-21T00:19:25;96727.97;;;7.24;62.71
6218;BME280;3142;48.206;11.550;2024-02-21T00:21:52;96727.94;;;7.16;63.09
6218;BME280;3142;48.206;11.550;2024-02-21T00:24:18;96721.28;;;7.13;62.99
6218;BME280;3142;48.206;11.550;2024-02-21T00:26:46;96726.59;;;7.11;63.16
6218;BME280;3142;48.206;11.550;2024-02-21T00:29:12;96713.91;;;7.08;62.67
6218;BME280;3142;48.206;11.550;2024-02-21T00:31:39;96705.28;;;7.08;62.90
6218;BME280;3142;48.206;11.550;2024-02-21T00:34:05;96712.91;;;7.01;63.48
6218;BME280;3142;48.206;11.550;2024-02-21T00:36:32;96713.88;;;7.00;63.82
6218;BME280;3142;48.206;11.550;2024-02-21T00:38:58;96710.44;;;7.00;63.49
6218;BME280;3142;48.206;11.550;2024-02-21T00:41:25;96706.19;;;6.99;63.51
6218;BME280;3142;48.206;11.550;2024-02-21T00:43:52;96705.69;;;6.95;64.07
6218;BME280;3142;48.206;11.550;2024-02-21T00:46:19;96701.59;;;6.93;64.38
6218;BME280;3142;48.206;11.550;2024-02-21T00:48:45;96706.16;;;6.91;64.28
6218;BME280;3142;48.206;11.550;2024-02-21T00:51:12;96702.72;;;6.90;64.61
6218;BME280;3142;48.206;11.550;2024-02-21T00:53:38;96695.09;;;6.89;64.42
6218;BME280;3142;48.206;11.550;2024-02-21T00:56:05;96694.28;;;6.88;64.43
6218;BME280;3142;48.206;11.550;2024-02-21T00:58:31;96705.50;;;6.89;64.52
6218;BME280;3142;48.206;11.550;2024-02-21T01:01:00;96706.63;;;6.86;65.06
6218;BME280;3142;48.206;11.550;2024-02-21T01:03:26;96696.34;;;6.84;65.24
6218;BME280;3142;48.206;11.550;2024-02-21T01:05:53;96694.94;;;6.90;64.98
6218;BME280;3142;48.206;11.550;2024-02-21T01:08:19;96697.16;;;6.85;65.75
6218;BME280;3142;48.206;11.550;2024-02-21T01:10:45;96694.28;;;6.88;65.20
6218;BME280;3142;48.206;11.550;2024-02-21T01:13:12;96687.13;;;6.90;66.20
6218;BME280;3142;48.206;11.550;2024-02-21T01:15:39;96692.47;;;6.89;66.38
6218;BME280;3142;48.206;11.550;2024-02-21T01:18:07;96687.28;;;6.89;66.18
6218;BME280;3142;48.206;11.550;2024-02-21T01:20:33;96683.88;;;6.88;66.19
6218;BME280;3142;48.206;11.550;2024-02-21T01:23:00;96688.09;;;6.89;65.84
6218;BME280;3142;48.206;11.550;2024-02-21T01:25:26;96673.91;;;6.83;67.07
6218;BME280;3142;48.206;11.550;2024-02-21T01:27:53;96678.94;;;6.85;66.61
6218;BME280;3142;48.206;11.550;2024-02-21T01:30:19;96678.13;;;6.84;66.35
6218;BME280;3142;48.206;11.550;2024-02-21T01:32:46;96674.88;;;6.82;67.04
6218;BME280;3142;48.206;11.550;2024-02-21T01:35:13;96672.00;;;6.86;66.84
6218;BME280;3142;48.206;11.550;2024-02-21T01:37:40;96666.09;;;6.83;67.41
6218;BME280;3142;48.206;11.550;2024-02-21T01:40:07;96665.13;;;6.84;67.00
6218;BME280;3142;48.206;11.550;2024-02-21T01:42:38;96666.31;;;6.90;66.68
6218;BME280;3142;48.206;11.550;2024-02-21T01:45:05;96659.69;;;6.96;67.02
6218;BME280;3142;48.206;11.550;2024-02-21T01:47:31;96660.50;;;6.96;66.86
6218;BME280;3142;48.206;11.550;2024-02-21T01:49:58;96661.97;;;6.99;66.83
6218;BME280;3142;48.206;11.550;2024-02-21T01:52:28;96655.28;;;6.96;67.34
6218;BME280;3142;48.206;11.550;2024-02-21T01:54:56;96645.19;;;6.93;66.91
6218;BME280;3142;48.206;11.550;2024-02-21T01:57:23;96647.94;;;6.92;66.80
6218;BME280;3142;48.206;11.550;2024-02-21T01:59:50;96638.69;;;6.89;66.94
6218;BME280;3142;48.206;11.550;2024-02-21T02:02:17;96642.91;;;6.90;66.80
6218;BME280;3142;48.206;11.550;2024-02-21T02:04:44;96642.75;;;6.92;67.46
6218;BME280;3142;48.206;11.550;2024-02-21T02:07:11;96645.34;;;6.92;66.98
6218;BME280;3142;48.206;11.550;2024-02-21T02:09:39;96627.47;;;6.89;67.59
6218;BME280;3142;48.206;11.550;2024-02-21T02:12:06;96626.81;;;6.87;66.86
6218;BME280;3142;48.206;11.550;2024-02-21T02:14:32;96622.41;;;6.87;66.74
6218;BME280;3142;48.206;11.550;2024-02-21T02:16:59;96623.22;;;6.88;67.03
6218;BME280;3142;48.206;11.550;2024-02-21T02:19:25;96610.06;;;6.89;66.76
6218;BME280;3142;48.206;11.550;2024-02-21T02:21:56;96609.25;;;6.89;67.17
6218;BME280;3142;48.206;11.550;2024-02-21T02:24:27;96611.47;;;6.83;66.94
6218;BME280;3142;48.206;11.550;2024-02-21T02:26:54;96597.50;;;6.84;66.99
6218;BME280;3142;48.206;11.550;2024-02-21T02:29:20;96605.03;;;6.88;66.95
6218;BME280;3142;48.206;11.550;2024-02-21T02:31:47;96590.38;;;6.87;67.43
6218;BME280;3142;48.206;11.550;2024-02-21T02:34:13;96593.13;;;6.85;66.33
6218;BME280;3142;48.206;11.550;2024-02-21T02:36:40;96596.56;;;6.86;67.54
6218;BME280;3142;48.206;11.550;2024-02-21T02:39:06;96592.78;;;6.80;66.89
6218;BME280;3142;48.206;11.550;2024-02-21T02:41:35;96589.84;;;6.75;66.78
6218;BME280;3142;48.206;11.550;2024-02-21T02:44:02;96587.06;;;6.76;67.02
6218;BME280;3142;48.206;11.550;2024-02-21T02:46:29;96583.00;;;6.74;67.57
6218;BME280;3142;48.206;11.550;2024-02-21T02:48:55;96575.19;;;6.74;67.36
6218;BME280;3142;48.206;11.550;2024-02-21T02:51:21;96569.84;;;6.75;67.31
6218;BME280;3142;48.206;11.550;2024-02-21T02:53:48;96572.44;;;6.75;67.95
6218;BME280;3142;48.206;11.550;2024-02-21T02:56:14;96561.88;;;6.77;67.39
6218;BME280;3142;48.206;11.550;2024-02-21T02:58:43;96565.63;;;6.82;67.09
6218;BME280;3142;48.206;11.550;2024-02-21T03:01:10;96564.00;;;6.81;67.39
6218;BME280;3142;48.206;11.550;2024-02-21T03:03:36;96560.91;;;6.78;67.41
6218;BME280;3142;48.206;11.550;2024-02-21T03:06:03;96564.97;;;6.80;67.21
6218;BME280;3142;48.206;11.550;2024-02-21T03:08:30;96560.41;;;6.74;67.55
6218;BME280;3142;48.206;11.550;2024-02-21T03:10:58;96563.44;;;6.70;67.57
6218;BME280;3142;48.206;11.550;2024-02-21T03:13:25;96565.56;;;6.66;67.62
6218;BME280;3142;48.206;11.550;2024-02-21T03:15:53;96561.97;;;6.67;67.57
6218;BME280;3142;48.206;11.550;2024-02-21T03:18:19;96564.81;;;6.74;67.81
6218;BME280;3142;48.206;11.550;2024-02-21T03:20:45;96561.06;;;6.76;67.37
6218;BME280;3142;48.206;11.550;2024-02-21T03:23:12;96561.72;;;6.78;67.30
6218;BME280;3142;48.206;11.550;2024-02-21T03:25:38;96569.53;;;6.78;67.43
6218;BME280;3142;48.206;11.550;2024-02-21T03:28:05;96568.22;;;6.74;67.50
6218;BME280;3142;48.206;11.550;2024-02-21T03:30:31;96564.25;;;6.70;67.72
6218;BME280;3142;48.206;11.550;2024-02-21T03:33:00;96567.41;;;6.74;67.53
6218;BME280;3142;48.206;11.550;2024-02-21T03:35:27;96570.34;;;6.79;67.66
6218;BME280;3142;48.206;11.550;2024-02-21T03:37:53;96565.63;;;6.82;67.38
6218;BME280;3142;48.206;11.550;2024-02-21T03:40:20;96571.50;;;6.84;67.46
6218;BME280;3142;48.206;11.550;2024-02-21T03:42:46;96568.09;;;6.84;67.33
6218;BME280;3142;48.206;11.550;2024-02-21T03:45:13;96562.06;;;6.83;67.39
6218;BME280;3142;48.206;11.550;2024-02-21T03:47:39;96566.00;;;6.88;66.86
6218;BME280;3142;48.206;11.550;2024-02-21T03:50:08;96560.00;;;6.87;66.94
6218;BME280;3142;48.206;11.550;2024-02-21T03:52:34;96550.41;;;6.88;66.88
6218;BME280;3142;48.206;11.550;2024-02-21T03:55:01;96548.63;;;6.88;66.49
6218;BME280;3142;48.206;11.550;2024-02-21T03:57:27;96546.84;;;6.89;66.64
6218;BME280;3142;48.206;11.550;2024-02-21T03:59:54;96553.66;;;6.90;66.77
6218;BME280;3142;48.206;11.550;2024-02-21T04:02:20;96555.25;;;6.82;66.45
6218;BME280;3142;48.206;11.550;2024-02-21T04:04:46;96550.19;;;6.81;67.09
6218;BME280;3142;48.206;11.550;2024-02-21T04:07:14;96554.41;;;6.82;67.29
6218;BME280;3142;48.206;11.550;2024-02-21T04:09:41;96553.28;;;6.84;66.68
6218;BME280;3142;48.206;11.550;2024-02-21T04:12:08;96548.09;;;6.84;67.08
6218;BME280;3142;48.206;11.550;2024-02-21T04:14:34;96546.31;;;6.85;66.54
6218;BME280;3142;48.206;11.550;2024-02-21T04:17:01;96546.31;;;6.85;67.37
6218;BME280;3142;48.206;11.550;2024-02-21T04:19:27;96544.84;;;6.82;66.57
6218;BME280;3142;48.206;11.550;2024-02-21T04:21:54;96532.66;;;6.83;67.02
6218;BME280;3142;48.206;11.550;2024-02-21T04:24:21;96534.59;;;6.81;67.43
6218;BME280;3142;48.206;11.550;2024-02-21T04:26:48;96530.84;;;6.83;67.00
6218;BME280;3142;48.206;11.550;2024-02-21T04:29:14;96529.06;;;6.84;66.79
6218;BME280;3142;48.206;11.550;2024-02-21T04:31:41;96528.09;;;6.85;66.60
6218;BME280;3142;48.206;11.550;2024-02-21T04:34:07;96528.94;;;6.86;67.29
6218;BME280;3142;48.206;11.550;2024-02-21T04:36:34;96523.59;;;6.87;66.54
6218;BME280;3142;48.206;11.550;2024-02-21T04:39:00;96520.47;;;6.83;67.09
6218;BME280;3142;48.206;11.550;2024-02-21T04:41:28;96515.25;;;6.83;66.87
6218;BME280;3142;48.206;11.550;2024-02-21T04:43:54;96508.91;;;6.78;67.25
6218;BME280;3142;48.206;11.550;2024-02-21T04:46:21;96504.19;;;6.73;67.13
6218;BME280;3142;48.206;11.550;2024-02-21T04:48:47;96505.66;;;6.76;66.68
6218;BME280;3142;48.206;11.550;2024-02-21T04:51:13;96492.16;;;6.72;67.44
6218;BME280;3142;48.206;11.550;2024-02-21T04:53:40;96491.63;;;6.69;67.35
6218;BME280;3142;48.206;11.550;2024-02-21T04:56:06;96484.97;;;6.66;67.21
6218;BME280;3142;48.206;11.550;2024-02-21T04:58:37;96478.75;;;6.59;66.58
6218;BME280;3142;48.206;11.550;2024-02-21T05:01:04;96480.03;;;6.55;67.17
6218;BME280;3142;48.206;11.550;2024-02-21T05:03:30;96467.66;;;6.49;67.13
6218;BME280;3142;48.206;11.550;2024-02-21T05:05:57;96472.81;;;6.41;67.23
6218;BME280;3142;48.206;11.550;2024-02-21T05:08:23;96476.38;;;6.40;67.29
6218;BME280;3142;48.206;11.550;2024-02-21T05:10:50;96464.03;;;6.42;66.92
6218;BME280;3142;48.206;11.550;2024-02-21T05:13:16;96460.78;;;6.40;67.08
6218;BME280;3142;48.206;11.550;2024-02-21T05:15:44;96449.25;;;6.42;66.55
6218;BME280;3142;48.206;11.550;2024-02-21T05:18:10;96455.59;;;6.40;67.30
6218;BME280;3142;48.206;11.550;2024-02-21T05:20:37;96446.00;;;6.40;67.05
6218;BME280;3142;48.206;11.550;2024-02-21T05:23:03;96445.84;;;6.42;67.16
6218;BME280;3142;48.206;11.550;2024-02-21T05:25:30;96448.25;;;6.35;67.10
6218;BME280;3142;48.206;11.550;2024-02-21T05:27:56;96443.38;;;6.32;66.92
6218;BME280;3142;48.206;11.550;2024-02-21T05:30:27;96446.31;;;6.37;66.98
6218;BME280;3142;48.206;11.550;2024-02-21T05:32:54;96444.53;;;6.38;66.31
6218;BME280;3142;48.206;11.550;2024-02-21T05:35:25;96447.47;;;6.43;66.21
6218;BME280;3142;48.206;11.550;2024-02-21T05:37:51;96439.03;;;6.41;66.36
6218;BME280;3142;48.206;11.550;2024-02-21T05:40:18;96437.06;;;6.43;65.51
6218;BME280;3142;48.206;11.550;2024-02-21T05:42:45;96436.78;;;6.46;65.88
6218;BME280;3142;48.206;11.550;2024-02-21T05:45:11;96427.00;;;6.40;65.83
6218;BME280;3142;48.206;11.550;2024-02-21T05:47:38;96429.16;;;6.44;65.74
6218;BME280;3142;48.206;11.550;2024-02-21T05:50:06;96421.34;;;6.44;65.82
6218;BME280;3142;48.206;11.550;2024-02-21T05:52:34;96420.81;;;6.41;66.10
6218;BME280;3142;48.206;11.550;2024-02-21T05:55:00;96413.81;;;6.33;65.97
6218;BME280;3142;48.206;11.550;2024-02-21T05:57:26;96409.59;;;6.32;65.78
6218;BME280;3142;48.206;11.550;2024-02-21T05:59:53;96408.41;;;6.27;65.93
6218;BME280;3142;48.206;11.550;2024-02-21T06:02:19;96407.13;;;6.22;65.97
6218;BME280;3142;48.206;11.550;2024-02-21T06:04:46;96403.88;;;6.29;65.54
6218;BME280;3142;48.206;11.550;2024-02-21T06:07:14;96401.09;;;6.22;65.84
6218;BME280;3142;48.206;11.550;2024-02-21T06:09:41;96401.75;;;6.24;65.75
6218;BME280;3142;48.206;11.550;2024-02-21T06:12:07;96393.16;;;6.23;65.67
6218;BME280;3142;48.206;11.550;2024-02-21T06:14:34;96401.59;;;6.26;65.44
6218;BME280;3142;48.206;11.550;2024-02-21T06:17:00;96408.41;;;6.27;65.40
6218;BME280;3142;48.206;11.550;2024-02-21T06:19:26;96404.56;;;6.31;65.02
6218;BME280;3142;48.206;11.550;2024-02-21T06:21:53;96393.19;;;6.32;65.21
6218;BME280;3142;48.206;11.550;2024-02-21T06:24:21;96394.97;;;6.31;64.88
6218;BME280;3142;48.206;11.550;2024-02-21T06:26:48;96385.19;;;6.25;65.17
6218;BME280;3142;48.206;11.550;2024-02-21T06:29:14;96379.22;;;6.33;64.53
6218;BME280;3142;48.206;11.550;2024-02-21T06:31:40;96383.13;;;6.37;64.95
6218;BME280;3142;48.206;11.550;2024-02-21T06:34:07;96382.31;;;6.36;64.66
6218;BME280;3142;48.206;11.550;2024-02-21T06:36:33;96389.16;;;6.37;64.48
6218;BME280;3142;48.206;11.550;2024-02-21T06:39:00;96387.53;;;6.36;64.21
6218;BME280;3142;48.206;11.550;2024-02-21T06:41:28;96394.84;;;6.41;64.21
6218;BME280;3142;48.206;11.550;2024-02-21T06:43:55;96399.44;;;6.47;63.65
6218;BME280;3142;48.206;11.550;2024-02-21T06:46:23;96396.22;;;6.61;63.48
6218;BME280;3142;48.206;11.550;2024-02-21T06:48:49;96394.53;;;6.86;62.83
6218;BME280;3142;48.206;11.550;2024-02-21T06:51:16;96393.56;;;7.11;61.70
6218;BME280;3142;48.206;11.550;2024-02-21T06:53:42;96386.75;;;7.19;61.07
6218;BME280;3142;48.206;11.550;2024-02-21T06:56:09;96389.16;;;6.96;61.97
6218;BME280;3142;48.206;11.550;2024-02-21T06:58:37;96393.03;;;6.83;62.55
6218;BME280;3142;48.206;11.550;2024-02-21T07:01:03;96386.84;;;6.76;61.78
6218;BME280;3142;48.206;11.550;2024-02-21T07:03:30;96381.91;;;6.57;61.89
6218;BME280;3142;48.206;11.550;2024-02-21T07:05:56;96388.22;;;6.54;62.62
6218;BME280;3142;48.206;11.550;2024-02-21T07:08:22;96379.28;;;6.57;62.17
6218;BME280;3142;48.206;11.550;2024-02-21T07:10:49;96376.69;;;6.57;61.91
6218;BME280;3142;48.206;11.550;2024-02-21T07:13:15;96389.41;;;6.60;62.08
6218;BME280;3142;48.206;11.550;2024-02-21T07:15:44;96384.69;;;6.64;61.75
6218;BME280;3142;48.206;11.550;2024-02-21T07:18:10;96379.81;;;6.69;61.97
6218;BME280;3142;48.206;11.550;2024-02-21T07:20:37;96387.47;;;6.70;61.88
6218;BME280;3142;48.206;11.550;2024-02-21T07:23:03;96381.28;;;6.71;60.80
6218;BME280;3142;48.206;11.550;2024-02-21T07:25:30;96387.47;;;6.70;61.38
6218;BME280;3142;48.206;11.550;2024-02-21T07:27:56;96386.69;;;6.78;61.26
6218;BME280;3142;48.206;11.550;2024-02-21T07:30:23;96381.00;;;6.74;60.57
6218;BME280;3142;48.206;11.550;2024-02-21T07:32:50;96385.06;;;6.77;60.79
6218;BME280;3142;48.206;11.550;2024-02-21T07:35:17;96390.75;;;6.80;60.73
6218;BME280;3142;48.206;11.550;2024-02-21T07:37:43;96380.69;;;6.86;60.13
6218;BME280;3142;48.206;11.550;2024-02-21T07:40:12;96381.84;;;6.91;60.39
6218;BME280;3142;48.206;11.550;2024-02-21T07:42:39;96371.59;;;6.98;60.04
6218;BME280;3142;48.206;11.550;2024-02-21T07:45:06;96373.41;;;7.38;58.81
6218;BME280;3142;48.206;11.550;2024-02-21T07:47:33;96362.84;;;8.27;57.59
6218;BME280;3142;48.206;11.550;2024-02-21T07:50:01;96357.84;;;9.11;53.80
6218;BME280;3142;48.206;11.550;2024-02-21T07:52:28;96355.59;;;9.68;53.37
6218;BME280;3142;48.206;11.550;2024-02-21T07:54:55;96350.50;;;10.04;51.53
6218;BME280;3142;48.206;11.550;2024-02-21T07:57:21;96344.97;;;10.14;51.48
6218;BME280;3142;48.206;11.550;2024-02-21T07:59:48;96336.22;;;10.51;50.70
6218;BME280;3142;48.206;11.550;2024-02-21T08:02:14;96330.16;;;10.65;49.47
6218;BME280;3142;48.206;11.550;2024-02-21T08:04:41;96312.97;;;10.78;49.16
6218;BME280;3142;48.206;11.550;2024-02-21T08:07:09;96311.84;;;11.08;48.46
6218;BME280;3142;48.206;11.550;2024-02-21T08:09:35;96294.72;;;11.27;47.78
6218;BME280;3142;48.206;11.550;2024-02-21T08:12:03;96293.72;;;11.56;47.45
6218;BME280;3142;48.206;11.550;2024-02-21T08:14:30;96285.97;;;11.76;46.74
6218;BME280;3142;48.206;11.550;2024-02-21T08:16:56;96282.13;;;12.00;46.36
6218;BME280;3142;48.206;11.550;2024-02-21T08:19:24;96287.84;;;12.16;46.48
6218;BME280;3142;48.206;11.550;2024-02-21T08:21:51;96285.06;;;12.25;45.79
6218;BME280;3142;48.206;11.550;2024-02-21T08:24:18;96286.84;;;12.18;44.76
6218;BME280;3142;48.206;11.550;2024-02-21T08:26:45;96286.88;;;12.24;44.62
6218;BME280;3142;48.206;11.550;2024-02-21T08:29:12;96282.91;;;12.41;44.17
6218;BME280;3142;48.206;11.550;2024-02-21T08:31:38;96290.44;;;12.58;44.37
6218;BME280;3142;48.206;11.550;2024-02-21T08:34:05;96286.28;;;12.90;44.41
6218;BME280;3142;48.206;11.550;2024-02-21T08:36:33;96283.69;;;13.10;43.45
6218;BME280;3142;48.206;11.550;2024-02-21T08:39:00;96292.22;;;13.18;41.91
6218;BME280;3142;48.206;11.550;2024-02-21T08:41:30;96303.91;;;13.16;42.68
6218;BME280;3142;48.206;11.550;2024-02-21T08:43:57;96292.81;;;13.27;42.42
6218;BME280;3142;48.206;11.550;2024-02-21T08:46:24;96291.59;;;13.49;42.30
6218;BME280;3142;48.206;11.550;2024-02-21T08:48:50;96298.28;;;13.45;41.15
6218;BME280;3142;48.206;11.550;2024-02-21T08:51:17;96287.78;;;13.45;41.88
6218;BME280;3142;48.206;11.550;2024-02-21T08:53:44;96284.53;;;13.30;42.11
6218;BME280;3142;48.206;11.550;2024-02-21T08:56:10;96285.75;;;13.60;41.90
6218;BME280;3142;48.206;11.550;2024-02-21T08:58:39;96280.63;;;13.92;41.77
6218;BME280;3142;48.206;11.550;2024-02-21T09:01:06;96271.22;;;14.22;40.99
6218;BME280;3142;48.206;11.550;2024-02-21T09:03:36;96282.09;;;14.39;40.29
6218;BME280;3142;48.206;11.550;2024-02-21T09:06:03;96277.22;;;14.43;39.07
6218;BME280;3142;48.206;11.550;2024-02-21T09:08:30;96284.91;;;14.51;39.36
6218;BME280;3142;48.206;11.550;2024-02-21T09:10:56;96277.81;;;14.51;39.66
6218;BME280;3142;48.206;11.550;2024-02-21T09:13:23;96275.81;;;14.47;38.58
6218;BME280;3142;48.206;11.550;2024-02-21T09:15:51;96278.84;;;14.37;38.92
6218;BME280;3142;48.206;11.550;2024-02-21T09:18:17;96285.53;;;14.40;38.67
6218;BME280;3142;48.206;11.550;2024-02-21T09:20:44;96283.06;;;14.51;38.22
6218;BME280;3142;48.206;11.550;2024-02-21T09:23:12;96291.69;;;14.72;38.56
6218;BME280;3142;48.206;11.550;2024-02-21T09:25:38;96281.72;;;14.80;37.66
6218;BME280;3142;48.206;11.550;2024-02-21T09:28:05;96279.63;;;14.96;38.59
6218;BME280;3142;48.206;11.550;2024-02-21T09:30:32;96283.28;;;15.20;37.53
6218;BME280;3142;48.206;11.550;2024-02-21T09:33:00;96273.22;;;15.35;38.15
6218;BME280;3142;48.206;11.550;2024-02-21T09:35:27;96269.81;;;15.59;37.96
6218;BME280;3142;48.206;11.550;2024-02-21T09:37:53;96268.13;;;15.90;37.47
6218;BME280;3142;48.206;11.550;2024-02-21T09:40:20;96270.59;;;16.03;37.22
6218;BME280;3142;48.206;11.550;2024-02-21T09:42:48;96266.03;;;16.28;37.24
6218;BME280;3142;48.206;11.550;2024-02-21T09:45:19;96262.09;;;16.38;36.29
6218;BME280;3142;48.206;11.550;2024-02-21T09:47:53;96259.16;;;16.46;36.97
6218;BME280;3142;48.206;11.550;2024-02-21T09:50:26;96257.84;;;16.67;36.16
6218;BME280;3142;48.206;11.550;2024-02-21T09:52:54;96263.81;;;16.92;36.16
6218;BME280;3142;48.206;11.550;2024-02-21T09:55:21;96258.84;;;17.14;35.64
6218;BME280;3142;48.206;11.550;2024-02-21T09:57:49;96255.81;;;17.10;35.99
6218;BME280;3142;48.206;11.550;2024-02-21T10:00:17;96247.31;;;17.08;35.64
6218;BME280;3142;48.206;11.550;2024-02-21T10:02:47;96255.16;;;17.15;35.82
6218;BME280;3142;48.206;11.550;2024-02-21T10:05:14;96248.47;;;17.12;35.98
6218;BME280;3142;48.206;11.550;2024-02-21T10:07:41;96241.69;;;17.05;35.10
6218;BME280;3142;48.206;11.550;2024-02-21T10:10:08;96241.06;;;16.91;35.41
6218;BME280;3142;48.206;11.550;2024-02-21T10:12:35;96236.97;;;17.07;35.58
6218;BME280;3142;48.206;11.550;2024-02-21T10:15:02;96223.88;;;17.00;35.29
6218;BME280;3142;48.206;11.550;2024-02-21T10:17:28;96226.06;;;17.15;35.75
6218;BME280;3142;48.206;11.550;2024-02-21T10:19:55;96233.50;;;16.95;35.04
6218;BME280;3142;48.206;11.550;2024-02-21T10:22:21;96234.06;;;16.97;35.50
6218;BME280;3142;48.206;11.550;2024-02-21T10:24:50;96231.34;;;17.15;35.14
6218;BME280;3142;48.206;11.550;2024-02-21T10:27:16;96225.94;;;17.22;34.68
6218;BME280;3142;48.206;11.550;2024-02-21T10:29:49;96228.41;;;17.58;34.31
6218;BME280;3142;48.206;11.550;2024-02-21T10:32:15;96217.00;;;17.58;34.26
6218;BME280;3142;48.206;11.550;2024-02-21T10:34:42;96212.53;;;17.58;33.27
6218;BME280;3142;48.206;11.550;2024-02-21T10:37:10;96210.53;;;17.65;33.70
6218;BME280;3142;48.206;11.550;2024-02-21T10:39:38;96215.03;;;17.53;33.24
6218;BME280;3142;48.206;11.550;2024-02-21T10:42:06;96197.22;;;17.37;33.05
6218;BME280;3142;48.206;11.550;2024-02-21T10:44:34;96199.16;;;17.18;33.13
6218;BME280;3142;48.206;11.550;2024-02-21T10:47:07;96185.00;;;17.12;33.83
6218;BME280;3142;48.206;11.550;2024-02-21T10:49:38;96178.22;;;17.05;33.42
6218;BME280;3142;48.206;11.550;2024-02-21T10:52:13;96176.63;;;17.04;33.90
6218;BME280;3142;48.206;11.550;2024-02-21T10:54:44;96166.16;;;17.21;33.87
6218;BME280;3142;48.206;11.550;2024-02-21T10:57:13;96157.88;;;17.40;33.28
6218;BME280;3142;48.206;11.550;2024-02-21T10:59:40;96159.84;;;17.33;33.67
6218;BME280;3142;48.206;11.550;2024-02-21T11:02:07;96152.72;;;17.22;33.62
6218;BME280;3142;48.206;11.550;2024-02-21T11:04:34;96146.94;;;17.25;34.05
6218;BME280;3142;48.206;11.550;2024-02-21T11:07:03;96139.47;;;17.34;33.64
6218;BME280;3142;48.206;11.550;2024-02-21T11:09:30;96138.34;;;17.30;33.66
6218;BME280;3142;48.206;11.550;2024-02-21T11:11:58;96123.75;;;17.27;33.48
6218;BME280;3142;48.206;11.550;2024-02-21T11:14:28;96121.19;;;17.21;32.73
6218;BME280;3142;48.206;11.550;2024-02-21T11:16:58;96125.44;;;17.33;32.82
6218;BME280;3142;48.206;11.550;2024-02-21T11:19:25;96108.19;;;17.42;32.61
6218;BME280;3142;48.206;11.550;2024-02-21T11:21:52;96107.59;;;17.52;32.42
6218;BME280;3142;48.206;11.550;2024-02-21T11:24:26;96102.88;;;17.54;32.83
6218;BME280;3142;48.206;11.550;2024-02-21T11:26:53;96092.31;;;17.42;32.30
6218;BME280;3142;48.206;11.550;2024-02-21T11:29:23;96089.22;;;17.22;32.75
6218;BME280;3142;48.206;11.550;2024-02-21T11:31:51;96084.75;;;17.23;32.72
6218;BME280;3142;48.206;11.550;2024-02-21T11:34:18;96090.84;;;17.11;33.02
6218;BME280;3142;48.206;11.550;2024-02-21T11:36:49;96081.78;;;17.07;32.39
6218;BME280;3142;48.206;11.550;2024-02-21T11:39:19;96075.25;;;16.86;32.86
6218;BME280;3142;48.206;11.550;2024-02-21T11:41:47;96073.03;;;16.72;33.36
6218;BME280;3142;48.206;11.550;2024-02-21T11:44:13;96068.53;;;16.61;33.16
6218;BME280;3142;48.206;11.550;2024-02-21T11:46:40;96066.91;;;16.59;33.54
6218;BME280;3142;48.206;11.550;2024-02-21T11:49:08;96059.56;;;16.62;33.29
6218;BME280;3142;48.206;11.550;2024-02-21T11:51:34;96056.69;;;16.63;32.51
6218;BME280;3142;48.206;11.550;2024-02-21T11:54:01;96052.56;;;16.67;32.25
6218;BME280;3142;48.206;11.550;2024-02-21T11:56:27;96047.03;;;16.57;32.58
6218;BME280;3142;48.206;11.550;2024-02-21T11:58:54;96041.31;;;16.60;32.75
6218;BME280;3142;48.206;11.550;2024-02-21T12:01:20;96029.38;;;16.69;32.48
6218;BME280;3142;48.206;11.550;2024-02-21T12:03:47;96024.88;;;16.93;32.64
6218;BME280;3142;48.206;11.550;2024-02-21T12:06:16;96017.16;;;17.15;32.81
6218;BME280;3142;48.206;11.550;2024-02-21T12:08:46;96011.44;;;17.06;32.12
6218;BME280;3142;48.206;11.550;2024-02-21T12:11:18;96009.25;;;17.15;31.31
6218;BME280;3142;48.206;11.550;2024-02-21T12:13:45;96003.56;;;17.23;29.87
6218;BME280;3142;48.206;11.550;2024-02-21T12:16:15;96002.66;;;17.17;28.29
6218;BME280;3142;48.206;11.550;2024-02-21T12:18:42;96007.00;;;17.24;28.03
6218;BME280;3142;48.206;11.550;2024-02-21T12:21:09;95998.50;;;17.33;28.45
6218;BME280;3142;48.206;11.550;2024-02-21T12:23:38;95985.06;;;17.23;28.13
6218;BME280;3142;48.206;11.550;2024-02-21T12:26:05;95983.84;;;17.14;28.37
6218;BME280;3142;48.206;11.550;2024-02-21T12:28:33;95980.59;;;17.12;28.36
6218;BME280;3142;48.206;11.550;2024-02-21T12:30:59;95970.88;;;17.01;28.59
6218;BME280;3142;48.206;11.550;2024-02-21T12:33:26;95962.22;;;17.05;28.65
6218;BME280;3142;48.206;11.550;2024-02-21T12:35:52;95967.03;;;17.08;29.26
6218;BME280;3142;48.206;11.550;2024-02-21T12:38:20;95962.09;;;17.12;29.06
6218;BME280;3142;48.206;11.550;2024-02-21T12:40:47;95954.31;;;17.05;28.65
6218;BME280;3142;48.206;11.550;2024-02-21T12:43:14;95952.56;;;17.11;28.84
6218;BME280;3142;48.206;11.550;2024-02-21T12:45:40;95944.28;;;17.07;28.30
6218;BME280;3142;48.206;11.550;2024-02-21T12:48:06;95937.91;;;16.92;27.96
6218;BME280;3142;48.206;11.550;2024-02-21T12:50:33;95935.97;;;16.87;27.52
6218;BME280;3142;48.206;11.550;2024-02-21T12:52:59;95937.81;;;16.75;28.08
6218;BME280;3142;48.206;11.550;2024-02-21T12:55:26;95928.06;;;16.75;28.26
6218;BME280;3142;48.206;11.550;2024-02-21T12:57:54;95918.75;;;16.61;28.02
6218;BME280;3142;48.206;11.550;2024-02-21T13:00:20;95912.75;;;16.54;27.73
6218;BME280;3142;48.206;11.550;2024-02-21T13:02:48;95905.66;;;16.43;27.81
6218;BME280;3142;48.206;11.550;2024-02-21T13:05:14;95903.94;;;16.48;27.87
6218;BME280;3142;48.206;11.550;2024-02-21T13:07:41;95903.00;;;16.54;27.89
6218;BME280;3142;48.206;11.550;2024-02-21T13:10:07;95894.84;;;16.56;27.82
6218;BME280;3142;48.206;11.550;2024-02-21T13:12:34;95894.28;;;16.54;28.02
6218;BME280;3142;48.206;11.550;2024-02-21T13:15:02;95885.22;;;16.50;27.75
6218;BME280;3142;48.206;11.550;2024-02-21T13:17:29;95882.47;;;16.45;27.66